sensor_id;sensor_type;location;lat;lon;timestamp;P1;durP1;ratioP1;P2;durP2;ratioP2
32491;SDS011;20605;49.742;18.802;2023-02-01T00:02:05;5.20;;;3.90;;
32491;SDS011;20605;49.742;18.802;2023-02-01T00:04:31;3.90;;;3.40;;
32491;SDS011;20605;49.742;18.802;2023-02-01T00:06:57;6.00;;;3.50;;
32491;SDS011;20605;49.742;18.802;2023-02-01T00:09:23;6.30;;;4.10;;
32491;SDS011;20605;49.742;18.802;2023-02-01T00:11:48;5.10;;;3.70;;
32491;SDS011;20605;49.742;18.802;2023-02-01T00:14:14;6.00;;;4.20;;
32491;SDS011;20605;49.742;18.802;2023-02-01T00:16:40;4.40;;;3.40;;
32491;SDS011;20605;49.742;18.802;2023-02-01T00:19:13;6.00;;;3.80;;
32491;SDS011;20605;49.742;18.802;2023-02-01T00:21:40;5.80;;;4.50;;
32491;SDS011;20605;49.742;18.802;2023-02-01T00:24:06;5.70;;;3.80;;
32491;SDS011;20605;49.742;18.802;2023-02-01T00:26:35;5.50;;;4.40;;
32491;SDS011;20605;49.742;18.802;2023-02-01T00:29:03;4.60;;;4.10;;
32491;SDS011;20605;49.742;18.802;2023-02-01T00:31:31;7.10;;;4.60;;
32491;SDS011;20605;49.742;18.802;2023-02-01T00:33:57;6.80;;;4.60;;
32491;SDS011;20605;49.742;18.802;2023-02-01T00:36:22;6.00;;;4.90;;
32491;SDS011;20605;49.742;18.802;2023-02-01T00:38:48;5.00;;;3.70;;
32491;SDS011;20605;49.742;18.802;2023-02-01T00:41:15;6.80;;;4.10;;
32491;SDS011;20605;49.742;18.802;2023-02-01T00:43:42;4.90;;;3.70;;
32491;SDS011;20605;49.742;18.802;2023-02-01T00:46:09;5.10;;;3.70;;
32491;SDS011;20605;49.742;18.802;2023-02-01T00:48:37;4.80;;;3.70;;
32491;SDS011;20605;49.742;18.802;2023-02-01T00:51:04;5.00;;;3.70;;
32491;SDS011;20605;49.742;18.802;2023-02-01T00:53:31;5.70;;;4.20;;
32491;SDS011;20605;49.742;18.802;2023-02-01T00:55:58;5.60;;;3.90;;
32491;SDS011;20605;49.742;18.802;2023-02-01T00:58:24;5.40;;;3.50;;
32491;SDS011;20605;49.742;18.802;2023-02-01T01:01:07;6.00;;;4.10;;
32491;SDS011;20605;49.742;18.802;2023-02-01T01:03:41;7.40;;;4.10;;
32491;SDS011;20605;49.742;18.802;2023-02-01T01:06:13;5.80;;;3.70;;
32491;SDS011;20605;49.742;18.802;2023-02-01T01:08:40;6.30;;;3.60;;
32491;SDS011;20605;49.742;18.802;2023-02-01T01:11:10;4.20;;;3.60;;
32491;SDS011;20605;49.742;18.802;2023-02-01T01:13:36;4.80;;;3.50;;
32491;SDS011;20605;49.742;18.802;2023-02-01T01:16:02;5.10;;;3.60;;
32491;SDS011;20605;49.742;18.802;2023-02-01T01:18:31;4.10;;;3.40;;
32491;SDS011;20605;49.742;18.802;2023-02-01T01:20:57;3.80;;;3.40;;
32491;SDS011;20605;49.742;18.802;2023-02-01T01:23:24;3.40;;;3.10;;
32491;SDS011;20605;49.742;18.802;2023-02-01T01:25:49;4.60;;;3.60;;
32491;SDS011;20605;49.742;18.802;2023-02-01T01:28:15;4.00;;;3.20;;
32491;SDS011;20605;49.742;18.802;2023-02-01T01:30:41;6.30;;;3.00;;
32491;SDS011;20605;49.742;18.802;2023-02-01T01:33:07;5.00;;;3.30;;
32491;SDS011;20605;49.742;18.802;2023-02-01T01:35:33;4.90;;;3.50;;
32491;SDS011;20605;49.742;18.802;2023-02-01T01:37:59;4.50;;;3.10;;
32491;SDS011;20605;49.742;18.802;2023-02-01T01:40:27;5.30;;;3.60;;
32491;SDS011;20605;49.742;18.802;2023-02-01T01:42:54;4.90;;;3.90;;
32491;SDS011;20605;49.742;18.802;2023-02-01T01:45:24;5.10;;;3.70;;
32491;SDS011;20605;49.742;18.802;2023-02-01T01:48:02;4.70;;;3.90;;
32491;SDS011;20605;49.742;18.802;2023-02-01T01:50:57;4.60;;;3.50;;
32491;SDS011;20605;49.742;18.802;2023-02-01T01:53:31;4.70;;;3.50;;
32491;SDS011;20605;49.742;18.802;2023-02-01T01:55:59;4.70;;;3.90;;
32491;SDS011;20605;49.742;18.802;2023-02-01T01:58:26;4.10;;;3.60;;
32491;SDS011;20605;49.742;18.802;2023-02-01T02:00:57;4.10;;;3.40;;
32491;SDS011;20605;49.742;18.802;2023-02-01T02:03:42;4.30;;;3.50;;
32491;SDS011;20605;49.742;18.802;2023-02-01T02:06:33;5.50;;;3.70;;
32491;SDS011;20605;49.742;18.802;2023-02-01T02:09:10;5.10;;;3.80;;
32491;SDS011;20605;49.742;18.802;2023-02-01T02:11:36;4.30;;;3.30;;
32491;SDS011;20605;49.742;18.802;2023-02-01T02:14:02;4.50;;;3.40;;
32491;SDS011;20605;49.742;18.802;2023-02-01T02:19:32;3.20;;;2.90;;
32491;SDS011;20605;49.742;18.802;2023-02-01T02:24:40;2.70;;;2.50;;
32491;SDS011;20605;49.742;18.802;2023-02-01T02:27:23;4.30;;;3.00;;
32491;SDS011;20605;49.742;18.802;2023-02-01T02:35:33;7.50;;;4.90;;
32491;SDS011;20605;49.742;18.802;2023-02-01T02:38:13;9.80;;;6.00;;
32491;SDS011;20605;49.742;18.802;2023-02-01T02:41:04;6.80;;;5.20;;
32491;SDS011;20605;49.742;18.802;2023-02-01T02:46:16;7.10;;;4.10;;
32491;SDS011;20605;49.742;18.802;2023-02-01T02:49:20;5.90;;;4.20;;
32491;SDS011;20605;49.742;18.802;2023-02-01T02:52:13;5.60;;;4.20;;
32491;SDS011;20605;49.742;18.802;2023-02-01T02:55:12;5.00;;;4.30;;
32491;SDS011;20605;49.742;18.802;2023-02-01T02:57:39;4.90;;;3.30;;
32491;SDS011;20605;49.742;18.802;2023-02-01T03:00:29;4.90;;;2.70;;
32491;SDS011;20605;49.742;18.802;2023-02-01T03:03:16;3.40;;;2.80;;
32491;SDS011;20605;49.742;18.802;2023-02-01T03:06:00;4.60;;;2.30;;
32491;SDS011;20605;49.742;18.802;2023-02-01T03:08:27;4.10;;;2.90;;
32491;SDS011;20605;49.742;18.802;2023-02-01T03:11:00;4.40;;;2.70;;
32491;SDS011;20605;49.742;18.802;2023-02-01T03:22:02;2.90;;;2.60;;
32491;SDS011;20605;49.742;18.802;2023-02-01T03:24:40;4.30;;;3.70;;
32491;SDS011;20605;49.742;18.802;2023-02-01T03:30:11;18.40;;;10.40;;
32491;SDS011;20605;49.742;18.802;2023-02-01T03:32:43;12.90;;;7.00;;
32491;SDS011;20605;49.742;18.802;2023-02-01T03:35:46;11.80;;;6.80;;
32491;SDS011;20605;49.742;18.802;2023-02-01T03:38:24;6.80;;;4.60;;
32491;SDS011;20605;49.742;18.802;2023-02-01T03:43:38;5.10;;;4.00;;
32491;SDS011;20605;49.742;18.802;2023-02-01T03:46:14;4.90;;;3.30;;
32491;SDS011;20605;49.742;18.802;2023-02-01T03:48:48;3.10;;;2.60;;
32491;SDS011;20605;49.742;18.802;2023-02-01T03:51:17;4.80;;;2.40;;
32491;SDS011;20605;49.742;18.802;2023-02-01T03:53:45;2.40;;;1.90;;
32491;SDS011;20605;49.742;18.802;2023-02-01T03:56:16;4.70;;;2.60;;
32491;SDS011;20605;49.742;18.802;2023-02-01T03:58:44;4.90;;;3.30;;
32491;SDS011;20605;49.742;18.802;2023-02-01T04:01:28;4.60;;;2.40;;
32491;SDS011;20605;49.742;18.802;2023-02-01T04:03:56;2.80;;;1.80;;
32491;SDS011;20605;49.742;18.802;2023-02-01T04:06:23;3.80;;;2.10;;
32491;SDS011;20605;49.742;18.802;2023-02-01T04:08:51;2.80;;;1.80;;
32491;SDS011;20605;49.742;18.802;2023-02-01T04:11:17;3.50;;;1.60;;
32491;SDS011;20605;49.742;18.802;2023-02-01T04:13:43;6.60;;;2.20;;
32491;SDS011;20605;49.742;18.802;2023-02-01T04:16:09;3.00;;;1.60;;
32491;SDS011;20605;49.742;18.802;2023-02-01T04:18:36;4.50;;;2.80;;
32491;SDS011;20605;49.742;18.802;2023-02-01T04:21:02;8.00;;;3.90;;
32491;SDS011;20605;49.742;18.802;2023-02-01T04:23:29;7.10;;;3.10;;
32491;SDS011;20605;49.742;18.802;2023-02-01T04:26:00;4.70;;;2.30;;
32491;SDS011;20605;49.742;18.802;2023-02-01T04:28:27;3.60;;;2.00;;
32491;SDS011;20605;49.742;18.802;2023-02-01T04:30:53;4.80;;;2.10;;
32491;SDS011;20605;49.742;18.802;2023-02-01T04:33:19;4.50;;;2.40;;
32491;SDS011;20605;49.742;18.802;2023-02-01T04:35:44;2.60;;;1.70;;
32491;SDS011;20605;49.742;18.802;2023-02-01T04:38:10;24.20;;;11.00;;
32491;SDS011;20605;49.742;18.802;2023-02-01T04:40:36;10.50;;;4.50;;
32491;SDS011;20605;49.742;18.802;2023-02-01T04:43:04;14.20;;;9.00;;
32491;SDS011;20605;49.742;18.802;2023-02-01T04:45:30;18.10;;;12.80;;
32491;SDS011;20605;49.742;18.802;2023-02-01T04:47:56;58.30;;;25.70;;
32491;SDS011;20605;49.742;18.802;2023-02-01T04:50:22;113.30;;;65.70;;
32491;SDS011;20605;49.742;18.802;2023-02-01T04:52:48;16.10;;;11.70;;
32491;SDS011;20605;49.742;18.802;2023-02-01T04:55:14;35.90;;;21.10;;
32491;SDS011;20605;49.742;18.802;2023-02-01T04:57:40;44.40;;;24.30;;
32491;SDS011;20605;49.742;18.802;2023-02-01T05:00:07;45.90;;;23.50;;
32491;SDS011;20605;49.742;18.802;2023-02-01T05:02:34;40.10;;;18.40;;
32491;SDS011;20605;49.742;18.802;2023-02-01T05:05:00;44.10;;;20.20;;
32491;SDS011;20605;49.742;18.802;2023-02-01T05:07:27;61.60;;;26.20;;
32491;SDS011;20605;49.742;18.802;2023-02-01T05:09:53;70.40;;;31.40;;
32491;SDS011;20605;49.742;18.802;2023-02-01T05:12:18;16.40;;;8.40;;
32491;SDS011;20605;49.742;18.802;2023-02-01T05:15:02;11.60;;;5.10;;
32491;SDS011;20605;49.742;18.802;2023-02-01T05:17:29;13.20;;;6.20;;
32491;SDS011;20605;49.742;18.802;2023-02-01T05:19:54;6.50;;;2.80;;
32491;SDS011;20605;49.742;18.802;2023-02-01T05:22:20;9.00;;;4.10;;
32491;SDS011;20605;49.742;18.802;2023-02-01T05:24:46;18.00;;;9.20;;
32491;SDS011;20605;49.742;18.802;2023-02-01T05:27:12;7.60;;;3.80;;
32491;SDS011;20605;49.742;18.802;2023-02-01T05:29:38;13.30;;;7.00;;
32491;SDS011;20605;49.742;18.802;2023-02-01T05:32:04;21.50;;;10.60;;
32491;SDS011;20605;49.742;18.802;2023-02-01T05:34:29;19.70;;;9.80;;
32491;SDS011;20605;49.742;18.802;2023-02-01T05:36:55;21.40;;;10.30;;
32491;SDS011;20605;49.742;18.802;2023-02-01T05:39:21;35.20;;;16.30;;
32491;SDS011;20605;49.742;18.802;2023-02-01T05:41:46;18.50;;;7.90;;
32491;SDS011;20605;49.742;18.802;2023-02-01T05:44:12;41.00;;;16.50;;
32491;SDS011;20605;49.742;18.802;2023-02-01T05:46:38;28.70;;;11.80;;
32491;SDS011;20605;49.742;18.802;2023-02-01T05:49:04;58.80;;;21.90;;
32491;SDS011;20605;49.742;18.802;2023-02-01T05:51:30;27.30;;;10.70;;
32491;SDS011;20605;49.742;18.802;2023-02-01T05:53:56;26.50;;;10.80;;
32491;SDS011;20605;49.742;18.802;2023-02-01T05:56:21;44.30;;;17.00;;
32491;SDS011;20605;49.742;18.802;2023-02-01T05:58:47;38.60;;;15.50;;
32491;SDS011;20605;49.742;18.802;2023-02-01T06:01:13;83.30;;;31.30;;
32491;SDS011;20605;49.742;18.802;2023-02-01T06:03:38;79.30;;;27.80;;
32491;SDS011;20605;49.742;18.802;2023-02-01T06:06:04;24.30;;;11.10;;
32491;SDS011;20605;49.742;18.802;2023-02-01T06:08:31;44.80;;;18.10;;
32491;SDS011;20605;49.742;18.802;2023-02-01T06:10:57;32.00;;;13.60;;
32491;SDS011;20605;49.742;18.802;2023-02-01T06:13:25;40.40;;;16.60;;
32491;SDS011;20605;49.742;18.802;2023-02-01T06:15:51;35.30;;;15.20;;
32491;SDS011;20605;49.742;18.802;2023-02-01T06:18:17;77.00;;;30.80;;
32491;SDS011;20605;49.742;18.802;2023-02-01T06:20:43;39.50;;;15.70;;
32491;SDS011;20605;49.742;18.802;2023-02-01T06:23:09;54.30;;;21.00;;
32491;SDS011;20605;49.742;18.802;2023-02-01T06:25:35;28.10;;;12.00;;
32491;SDS011;20605;49.742;18.802;2023-02-01T06:28:01;47.20;;;18.10;;
32491;SDS011;20605;49.742;18.802;2023-02-01T06:30:27;49.10;;;20.20;;
32491;SDS011;20605;49.742;18.802;2023-02-01T06:32:53;33.90;;;13.50;;
32491;SDS011;20605;49.742;18.802;2023-02-01T06:35:19;13.80;;;5.90;;
32491;SDS011;20605;49.742;18.802;2023-02-01T06:37:44;37.00;;;15.30;;
32491;SDS011;20605;49.742;18.802;2023-02-01T06:40:10;32.00;;;14.10;;
32491;SDS011;20605;49.742;18.802;2023-02-01T06:42:37;23.60;;;11.80;;
32491;SDS011;20605;49.742;18.802;2023-02-01T06:45:03;28.80;;;13.20;;
32491;SDS011;20605;49.742;18.802;2023-02-01T06:47:29;19.30;;;9.10;;
32491;SDS011;20605;49.742;18.802;2023-02-01T06:49:55;23.30;;;11.40;;
32491;SDS011;20605;49.742;18.802;2023-02-01T06:52:20;69.50;;;30.70;;
32491;SDS011;20605;49.742;18.802;2023-02-01T06:54:46;40.80;;;19.50;;
32491;SDS011;20605;49.742;18.802;2023-02-01T06:57:12;24.40;;;11.80;;
32491;SDS011;20605;49.742;18.802;2023-02-01T06:59:39;21.70;;;10.70;;
32491;SDS011;20605;49.742;18.802;2023-02-01T07:02:05;37.60;;;17.10;;
32491;SDS011;20605;49.742;18.802;2023-02-01T07:04:30;24.10;;;11.40;;
32491;SDS011;20605;49.742;18.802;2023-02-01T07:06:56;24.50;;;10.60;;
32491;SDS011;20605;49.742;18.802;2023-02-01T07:09:22;40.90;;;19.10;;
32491;SDS011;20605;49.742;18.802;2023-02-01T07:11:48;19.80;;;7.30;;
32491;SDS011;20605;49.742;18.802;2023-02-01T07:14:14;14.70;;;7.70;;
32491;SDS011;20605;49.742;18.802;2023-02-01T07:16:39;24.00;;;10.50;;
32491;SDS011;20605;49.742;18.802;2023-02-01T07:19:05;59.20;;;25.60;;
32491;SDS011;20605;49.742;18.802;2023-02-01T07:21:32;35.30;;;15.00;;
32491;SDS011;20605;49.742;18.802;2023-02-01T07:23:58;18.90;;;8.40;;
32491;SDS011;20605;49.742;18.802;2023-02-01T07:26:24;43.70;;;19.90;;
32491;SDS011;20605;49.742;18.802;2023-02-01T07:28:50;31.30;;;15.20;;
32491;SDS011;20605;49.742;18.802;2023-02-01T07:31:17;25.90;;;12.00;;
32491;SDS011;20605;49.742;18.802;2023-02-01T07:33:46;26.60;;;12.60;;
32491;SDS011;20605;49.742;18.802;2023-02-01T07:36:15;10.70;;;5.70;;
32491;SDS011;20605;49.742;18.802;2023-02-01T07:38:41;24.10;;;10.20;;
32491;SDS011;20605;49.742;18.802;2023-02-01T07:41:07;13.50;;;6.60;;
32491;SDS011;20605;49.742;18.802;2023-02-01T07:43:34;14.20;;;7.80;;
32491;SDS011;20605;49.742;18.802;2023-02-01T07:46:02;23.20;;;9.20;;
32491;SDS011;20605;49.742;18.802;2023-02-01T07:48:29;17.30;;;7.50;;
32491;SDS011;20605;49.742;18.802;2023-02-01T07:51:00;15.60;;;8.00;;
32491;SDS011;20605;49.742;18.802;2023-02-01T07:53:28;19.00;;;7.40;;
32491;SDS011;20605;49.742;18.802;2023-02-01T07:55:55;36.10;;;15.50;;
32491;SDS011;20605;49.742;18.802;2023-02-01T07:58:22;19.70;;;7.40;;
32491;SDS011;20605;49.742;18.802;2023-02-01T08:00:49;11.90;;;4.40;;
32491;SDS011;20605;49.742;18.802;2023-02-01T08:03:33;23.80;;;9.10;;
32491;SDS011;20605;49.742;18.802;2023-02-01T08:05:59;17.90;;;7.60;;
32491;SDS011;20605;49.742;18.802;2023-02-01T08:08:25;23.10;;;11.20;;
32491;SDS011;20605;49.742;18.802;2023-02-01T08:10:50;24.30;;;11.70;;
32491;SDS011;20605;49.742;18.802;2023-02-01T08:13:16;27.20;;;12.90;;
32491;SDS011;20605;49.742;18.802;2023-02-01T08:15:42;26.30;;;11.50;;
32491;SDS011;20605;49.742;18.802;2023-02-01T08:18:08;207.10;;;87.80;;
32491;SDS011;20605;49.742;18.802;2023-02-01T08:20:35;50.00;;;25.00;;
32491;SDS011;20605;49.742;18.802;2023-02-01T08:23:01;25.30;;;11.50;;
32491;SDS011;20605;49.742;18.802;2023-02-01T08:25:27;77.90;;;30.00;;
32491;SDS011;20605;49.742;18.802;2023-02-01T08:27:53;64.70;;;22.30;;
32491;SDS011;20605;49.742;18.802;2023-02-01T08:30:20;47.50;;;18.30;;
32491;SDS011;20605;49.742;18.802;2023-02-01T08:32:47;60.50;;;24.60;;
32491;SDS011;20605;49.742;18.802;2023-02-01T08:35:13;29.60;;;11.90;;
32491;SDS011;20605;49.742;18.802;2023-02-01T08:37:39;114.40;;;35.50;;
32491;SDS011;20605;49.742;18.802;2023-02-01T08:40:05;66.10;;;21.90;;
32491;SDS011;20605;49.742;18.802;2023-02-01T08:42:31;43.30;;;15.10;;
32491;SDS011;20605;49.742;18.802;2023-02-01T08:45:15;107.20;;;31.20;;
32491;SDS011;20605;49.742;18.802;2023-02-01T08:47:45;107.70;;;32.90;;
32491;SDS011;20605;49.742;18.802;2023-02-01T08:50:12;89.30;;;26.30;;
32491;SDS011;20605;49.742;18.802;2023-02-01T08:52:38;70.70;;;20.30;;
32491;SDS011;20605;49.742;18.802;2023-02-01T08:55:05;121.80;;;34.10;;
32491;SDS011;20605;49.742;18.802;2023-02-01T08:57:32;218.50;;;60.30;;
32491;SDS011;20605;49.742;18.802;2023-02-01T08:59:58;56.50;;;15.70;;
32491;SDS011;20605;49.742;18.802;2023-02-01T09:02:25;58.20;;;17.40;;
32491;SDS011;20605;49.742;18.802;2023-02-01T09:04:51;49.40;;;15.00;;
32491;SDS011;20605;49.742;18.802;2023-02-01T09:07:17;96.80;;;27.50;;
32491;SDS011;20605;49.742;18.802;2023-02-01T09:09:44;113.40;;;29.40;;
32491;SDS011;20605;49.742;18.802;2023-02-01T09:12:10;86.30;;;25.00;;
32491;SDS011;20605;49.742;18.802;2023-02-01T09:14:36;102.70;;;25.80;;
32491;SDS011;20605;49.742;18.802;2023-02-01T09:17:02;119.10;;;31.20;;
32491;SDS011;20605;49.742;18.802;2023-02-01T09:19:28;141.90;;;36.90;;
32491;SDS011;20605;49.742;18.802;2023-02-01T09:21:54;133.70;;;45.70;;
32491;SDS011;20605;49.742;18.802;2023-02-01T09:24:19;84.70;;;27.60;;
32491;SDS011;20605;49.742;18.802;2023-02-01T09:26:46;64.80;;;24.90;;
32491;SDS011;20605;49.742;18.802;2023-02-01T09:29:12;31.70;;;12.60;;
32491;SDS011;20605;49.742;18.802;2023-02-01T09:31:38;72.30;;;25.80;;
32491;SDS011;20605;49.742;18.802;2023-02-01T09:34:05;72.90;;;25.80;;
32491;SDS011;20605;49.742;18.802;2023-02-01T09:36:33;90.00;;;33.50;;
32491;SDS011;20605;49.742;18.802;2023-02-01T09:38:59;76.70;;;30.30;;
32491;SDS011;20605;49.742;18.802;2023-02-01T09:46:53;72.80;;;29.30;;
32491;SDS011;20605;49.742;18.802;2023-02-01T09:49:35;46.20;;;19.10;;
32491;SDS011;20605;49.742;18.802;2023-02-01T09:52:08;41.50;;;17.10;;
32491;SDS011;20605;49.742;18.802;2023-02-01T09:54:48;32.10;;;13.70;;
32491;SDS011;20605;49.742;18.802;2023-02-01T09:57:24;75.80;;;31.80;;
32491;SDS011;20605;49.742;18.802;2023-02-01T10:00:03;17.00;;;7.00;;
32491;SDS011;20605;49.742;18.802;2023-02-01T10:02:37;25.60;;;12.70;;
32491;SDS011;20605;49.742;18.802;2023-02-01T10:05:05;47.90;;;21.60;;
32491;SDS011;20605;49.742;18.802;2023-02-01T10:07:39;23.50;;;10.80;;
32491;SDS011;20605;49.742;18.802;2023-02-01T10:10:45;40.60;;;19.60;;
32491;SDS011;20605;49.742;18.802;2023-02-01T10:13:21;28.40;;;12.60;;
32491;SDS011;20605;49.742;18.802;2023-02-01T10:15:50;19.50;;;9.30;;
32491;SDS011;20605;49.742;18.802;2023-02-01T10:26:19;23.60;;;11.10;;
32491;SDS011;20605;49.742;18.802;2023-02-01T10:28:51;17.60;;;7.60;;
32491;SDS011;20605;49.742;18.802;2023-02-01T10:31:22;22.50;;;9.00;;
32491;SDS011;20605;49.742;18.802;2023-02-01T10:33:52;17.00;;;7.50;;
32491;SDS011;20605;49.742;18.802;2023-02-01T10:39:05;12.30;;;5.70;;
32491;SDS011;20605;49.742;18.802;2023-02-01T10:41:37;15.70;;;9.70;;
32491;SDS011;20605;49.742;18.802;2023-02-01T10:44:12;22.30;;;10.20;;
32491;SDS011;20605;49.742;18.802;2023-02-01T10:46:40;20.20;;;11.40;;
32491;SDS011;20605;49.742;18.802;2023-02-01T10:49:08;32.10;;;19.60;;
32491;SDS011;20605;49.742;18.802;2023-02-01T10:51:42;15.80;;;10.00;;
32491;SDS011;20605;49.742;18.802;2023-02-01T10:54:19;20.90;;;14.70;;
32491;SDS011;20605;49.742;18.802;2023-02-01T10:56:48;14.60;;;9.70;;
32491;SDS011;20605;49.742;18.802;2023-02-01T10:59:19;10.40;;;7.00;;
32491;SDS011;20605;49.742;18.802;2023-02-01T11:01:49;11.60;;;7.20;;
32491;SDS011;20605;49.742;18.802;2023-02-01T11:04:19;12.40;;;7.60;;
32491;SDS011;20605;49.742;18.802;2023-02-01T11:06:47;9.40;;;6.30;;
32491;SDS011;20605;49.742;18.802;2023-02-01T11:09:20;13.00;;;5.70;;
32491;SDS011;20605;49.742;18.802;2023-02-01T11:14:17;12.20;;;6.50;;
32491;SDS011;20605;49.742;18.802;2023-02-01T11:16:50;13.20;;;7.00;;
32491;SDS011;20605;49.742;18.802;2023-02-01T11:19:20;12.20;;;6.10;;
32491;SDS011;20605;49.742;18.802;2023-02-01T11:21:53;12.60;;;7.20;;
32491;SDS011;20605;49.742;18.802;2023-02-01T11:24:54;11.30;;;7.10;;
32491;SDS011;20605;49.742;18.802;2023-02-01T11:27:14;10.90;;;5.90;;
32491;SDS011;20605;49.742;18.802;2023-02-01T11:29:43;11.60;;;5.20;;
32491;SDS011;20605;49.742;18.802;2023-02-01T11:32:12;16.10;;;6.50;;
32491;SDS011;20605;49.742;18.802;2023-02-01T11:34:45;11.00;;;5.30;;
32491;SDS011;20605;49.742;18.802;2023-02-01T11:37:15;12.10;;;5.50;;
32491;SDS011;20605;49.742;18.802;2023-02-01T11:39:53;11.20;;;5.90;;
32491;SDS011;20605;49.742;18.802;2023-02-01T11:42:21;16.30;;;8.60;;
32491;SDS011;20605;49.742;18.802;2023-02-01T11:44:47;15.00;;;9.10;;
32491;SDS011;20605;49.742;18.802;2023-02-01T11:47:27;26.00;;;12.90;;
32491;SDS011;20605;49.742;18.802;2023-02-01T11:49:58;20.00;;;12.80;;
32491;SDS011;20605;49.742;18.802;2023-02-01T11:58:26;7.30;;;4.70;;
32491;SDS011;20605;49.742;18.802;2023-02-01T12:06:57;24.80;;;13.00;;
32491;SDS011;20605;49.742;18.802;2023-02-01T12:09:42;48.50;;;17.30;;
32491;SDS011;20605;49.742;18.802;2023-02-01T12:13:19;23.40;;;9.60;;
32491;SDS011;20605;49.742;18.802;2023-02-01T12:15:27;23.80;;;9.40;;
32491;SDS011;20605;49.742;18.802;2023-02-01T12:21:04;59.20;;;20.60;;
32491;SDS011;20605;49.742;18.802;2023-02-01T12:30:12;46.50;;;16.00;;
32491;SDS011;20605;49.742;18.802;2023-02-01T12:32:37;30.80;;;11.50;;
32491;SDS011;20605;49.742;18.802;2023-02-01T12:38:09;28.70;;;11.00;;
32491;SDS011;20605;49.742;18.802;2023-02-01T12:49:17;43.70;;;16.50;;
32491;SDS011;20605;49.742;18.802;2023-02-01T12:51:51;40.60;;;15.70;;
32491;SDS011;20605;49.742;18.802;2023-02-01T12:54:34;31.50;;;13.00;;
32491;SDS011;20605;49.742;18.802;2023-02-01T12:57:01;21.20;;;8.60;;
32491;SDS011;20605;49.742;18.802;2023-02-01T12:59:37;78.20;;;31.80;;
32491;SDS011;20605;49.742;18.802;2023-02-01T13:02:18;19.70;;;8.80;;
32491;SDS011;20605;49.742;18.802;2023-02-01T13:07:29;18.10;;;7.30;;
32491;SDS011;20605;49.742;18.802;2023-02-01T13:10:18;16.40;;;7.80;;
32491;SDS011;20605;49.742;18.802;2023-02-01T13:12:56;26.70;;;11.80;;
32491;SDS011;20605;49.742;18.802;2023-02-01T13:15:51;31.00;;;12.70;;
32491;SDS011;20605;49.742;18.802;2023-02-01T13:18:32;33.70;;;13.50;;
32491;SDS011;20605;49.742;18.802;2023-02-01T13:21:03;23.80;;;9.30;;
32491;SDS011;20605;49.742;18.802;2023-02-01T13:23:31;35.90;;;20.90;;
32491;SDS011;20605;49.742;18.802;2023-02-01T13:26:00;24.90;;;11.80;;
32491;SDS011;20605;49.742;18.802;2023-02-01T13:33:40;39.90;;;17.60;;
32491;SDS011;20605;49.742;18.802;2023-02-01T13:36:40;29.70;;;15.10;;
32491;SDS011;20605;49.742;18.802;2023-02-01T13:42:00;15.00;;;10.20;;
32491;SDS011;20605;49.742;18.802;2023-02-01T13:44:48;18.80;;;10.60;;
32491;SDS011;20605;49.742;18.802;2023-02-01T13:47:38;29.80;;;13.00;;
32491;SDS011;20605;49.742;18.802;2023-02-01T13:50:13;22.70;;;11.80;;
32491;SDS011;20605;49.742;18.802;2023-02-01T13:53:31;22.40;;;12.30;;
32491;SDS011;20605;49.742;18.802;2023-02-01T13:55:37;37.40;;;17.00;;
32491;SDS011;20605;49.742;18.802;2023-02-01T14:00:37;11.20;;;6.20;;
32491;SDS011;20605;49.742;18.802;2023-02-01T14:10:48;31.60;;;21.30;;
32491;SDS011;20605;49.742;18.802;2023-02-01T14:13:25;26.90;;;19.60;;
32491;SDS011;20605;49.742;18.802;2023-02-01T14:23:47;20.30;;;17.80;;
32491;SDS011;20605;49.742;18.802;2023-02-01T14:26:40;51.50;;;41.10;;
32491;SDS011;20605;49.742;18.802;2023-02-01T14:34:28;81.20;;;66.00;;
32491;SDS011;20605;49.742;18.802;2023-02-01T14:37:02;27.10;;;22.00;;
32491;SDS011;20605;49.742;18.802;2023-02-01T14:47:44;10.90;;;8.60;;
32491;SDS011;20605;49.742;18.802;2023-02-01T14:50:25;14.50;;;10.30;;
32491;SDS011;20605;49.742;18.802;2023-02-01T14:58:30;48.70;;;28.80;;
32491;SDS011;20605;49.742;18.802;2023-02-01T15:01:05;57.80;;;24.80;;
32491;SDS011;20605;49.742;18.802;2023-02-01T15:03:55;153.30;;;50.00;;
32491;SDS011;20605;49.742;18.802;2023-02-01T15:06:26;45.60;;;16.80;;
32491;SDS011;20605;49.742;18.802;2023-02-01T15:09:03;51.60;;;19.60;;
32491;SDS011;20605;49.742;18.802;2023-02-01T15:14:30;39.10;;;13.80;;
32491;SDS011;20605;49.742;18.802;2023-02-01T15:16:57;27.70;;;9.80;;
32491;SDS011;20605;49.742;18.802;2023-02-01T15:19:24;31.80;;;11.40;;
32491;SDS011;20605;49.742;18.802;2023-02-01T15:21:52;101.90;;;30.20;;
32491;SDS011;20605;49.742;18.802;2023-02-01T15:24:27;138.90;;;39.00;;
32491;SDS011;20605;49.742;18.802;2023-02-01T15:26:54;273.50;;;76.00;;
32491;SDS011;20605;49.742;18.802;2023-02-01T15:29:22;172.80;;;50.40;;
32491;SDS011;20605;49.742;18.802;2023-02-01T15:31:53;69.20;;;21.20;;
32491;SDS011;20605;49.742;18.802;2023-02-01T15:34:19;217.40;;;65.10;;
32491;SDS011;20605;49.742;18.802;2023-02-01T15:36:46;60.80;;;26.40;;
32491;SDS011;20605;49.742;18.802;2023-02-01T15:41:46;118.10;;;40.20;;
32491;SDS011;20605;49.742;18.802;2023-02-01T15:44:34;65.70;;;26.80;;
32491;SDS011;20605;49.742;18.802;2023-02-01T15:47:08;101.10;;;38.90;;
32491;SDS011;20605;49.742;18.802;2023-02-01T15:49:43;50.60;;;28.70;;
32491;SDS011;20605;49.742;18.802;2023-02-01T15:52:21;44.60;;;24.90;;
32491;SDS011;20605;49.742;18.802;2023-02-01T15:54:56;68.80;;;37.50;;
32491;SDS011;20605;49.742;18.802;2023-02-01T15:57:38;56.00;;;31.00;;
32491;SDS011;20605;49.742;18.802;2023-02-01T16:00:08;52.60;;;29.30;;
32491;SDS011;20605;49.742;18.802;2023-02-01T16:02:56;137.90;;;55.00;;
32491;SDS011;20605;49.742;18.802;2023-02-01T16:05:34;66.00;;;27.90;;
32491;SDS011;20605;49.742;18.802;2023-02-01T16:08:15;30.80;;;14.30;;
32491;SDS011;20605;49.742;18.802;2023-02-01T16:10:43;44.80;;;21.10;;
32491;SDS011;20605;49.742;18.802;2023-02-01T16:13:12;176.40;;;101.80;;
32491;SDS011;20605;49.742;18.802;2023-02-01T16:15:39;75.50;;;42.30;;
32491;SDS011;20605;49.742;18.802;2023-02-01T16:18:05;87.80;;;45.80;;
32491;SDS011;20605;49.742;18.802;2023-02-01T16:20:33;24.40;;;15.50;;
32491;SDS011;20605;49.742;18.802;2023-02-01T16:23:00;39.80;;;21.60;;
32491;SDS011;20605;49.742;18.802;2023-02-01T16:25:27;61.50;;;31.60;;
32491;SDS011;20605;49.742;18.802;2023-02-01T16:27:53;68.40;;;35.40;;
32491;SDS011;20605;49.742;18.802;2023-02-01T16:30:19;39.50;;;21.80;;
32491;SDS011;20605;49.742;18.802;2023-02-01T16:32:48;31.90;;;18.30;;
32491;SDS011;20605;49.742;18.802;2023-02-01T16:35:19;37.40;;;18.40;;
32491;SDS011;20605;49.742;18.802;2023-02-01T16:37:49;31.30;;;16.60;;
32491;SDS011;20605;49.742;18.802;2023-02-01T16:40:16;27.80;;;15.50;;
32491;SDS011;20605;49.742;18.802;2023-02-01T16:42:43;25.40;;;14.20;;
32491;SDS011;20605;49.742;18.802;2023-02-01T16:45:10;15.10;;;9.30;;
32491;SDS011;20605;49.742;18.802;2023-02-01T16:47:40;44.50;;;23.10;;
32491;SDS011;20605;49.742;18.802;2023-02-01T16:50:23;43.90;;;26.20;;
32491;SDS011;20605;49.742;18.802;2023-02-01T16:52:51;54.70;;;28.40;;